Etusivu
METAR-TAF:

METAR-TAF

Lentoasemat :

Córdoba, Espanja

Leveyspiiri: 37-51N, Pituuspiiri: 004-51W, korkeus merenpinnasta: 90 m

Tämänhetkinen sää

Tämä raportti tehtiin 51 minuuttia sitten, kello 09.00 UTC
Tuuli 1 kn lounaasta
Lämpötila 25°C
Kosteus 39%
Ilmanpaine 1018 hPa
Näkyvyys 10 km tai enemmän
ei pilviä alle 1500 m:ssä eikä cumulonimbus-pilviä

METAR: LEBA 280900Z 23001KT CAVOK 25/10 Q1018

Aika: 11:51 (09:51 UTC)

Sääennuste

Tämä raportti tehtiin 1 tunti ja 51 minuuttia sitten, kello 08.00 UTC
Ennuste voimassa 28. päivästä klo 09 UTC - 29. päivään klo 09 UTC
Tuuli 5 kn lounaasta
Näkyvyys 10 km tai enemmän
ei pilviä alle 1500 m:ssä eikä cumulonimbus-pilviä

TAF: LEBA 280800Z 2809/2909 23005KT CAVOK TX35/2815Z TN15/2906Z

Säähavainnot ja -ennusteet yli 4000 lentoasemalta (METAR- ja TAF-raportit).

Käytössä olevat sääasemat on merkitty karttaan keltaisilla ja punaisilla pisteillä.

Aseta hiiri pisteen päälle nähdäksesi sääaseman nimen.

Klikkaa sitten nähdäksesi säähavainnot ja -ennusteet.

Kartan vaihtaminen: klikkaa mustalla rastilla varustettuja vihreitä pisteitä, niin voit zoomata sisään; viivalla varustettua vihreää pistettä, niin voit zoomata ulos tai vihreitä nuolia, niin pääset viereisille kartoille.


METAR-TAF: